sensor_id;sensor_type;location;lat;lon;timestamp;P1;durP1;ratioP1;P2;durP2;ratioP2
64061;SDS011;50308;47.438;-1.528;2024-01-07T00:00:09;20.70;;;12.32;;
64061;SDS011;50308;47.438;-1.528;2024-01-07T00:02:35;24.10;;;15.77;;
64061;SDS011;50308;47.438;-1.528;2024-01-07T00:05:01;20.83;;;13.57;;
64061;SDS011;50308;47.438;-1.528;2024-01-07T00:07:27;18.27;;;12.05;;
64061;SDS011;50308;47.438;-1.528;2024-01-07T00:09:53;18.23;;;11.27;;
64061;SDS011;50308;47.438;-1.528;2024-01-07T00:12:19;20.23;;;12.63;;
64061;SDS011;50308;47.438;-1.528;2024-01-07T00:14:44;20.08;;;13.55;;
64061;SDS011;50308;47.438;-1.528;2024-01-07T00:17:10;19.42;;;12.05;;
64061;SDS011;50308;47.438;-1.528;2024-01-07T00:19:36;37.42;;;25.50;;
64061;SDS011;50308;47.438;-1.528;2024-01-07T00:22:03;32.00;;;22.58;;
64061;SDS011;50308;47.438;-1.528;2024-01-07T00:24:29;25.13;;;17.08;;
64061;SDS011;50308;47.438;-1.528;2024-01-07T00:26:55;23.23;;;15.30;;
64061;SDS011;50308;47.438;-1.528;2024-01-07T00:29:21;17.88;;;12.88;;
64061;SDS011;50308;47.438;-1.528;2024-01-07T00:31:46;16.35;;;11.20;;
64061;SDS011;50308;47.438;-1.528;2024-01-07T00:34:12;23.17;;;14.55;;
64061;SDS011;50308;47.438;-1.528;2024-01-07T00:36:38;15.95;;;12.00;;
64061;SDS011;50308;47.438;-1.528;2024-01-07T00:39:03;24.83;;;17.65;;
64061;SDS011;50308;47.438;-1.528;2024-01-07T00:41:29;24.17;;;14.65;;
64061;SDS011;50308;47.438;-1.528;2024-01-07T00:43:55;17.85;;;12.85;;
64061;SDS011;50308;47.438;-1.528;2024-01-07T00:46:21;17.95;;;13.60;;
64061;SDS011;50308;47.438;-1.528;2024-01-07T00:48:47;21.58;;;12.82;;
64061;SDS011;50308;47.438;-1.528;2024-01-07T00:51:13;13.18;;;10.57;;
64061;SDS011;50308;47.438;-1.528;2024-01-07T00:53:38;14.10;;;9.70;;
64061;SDS011;50308;47.438;-1.528;2024-01-07T00:56:04;15.27;;;9.93;;
64061;SDS011;50308;47.438;-1.528;2024-01-07T00:58:31;12.93;;;9.07;;
64061;SDS011;50308;47.438;-1.528;2024-01-07T01:00:56;12.07;;;8.57;;
64061;SDS011;50308;47.438;-1.528;2024-01-07T01:03:22;11.50;;;8.18;;
64061;SDS011;50308;47.438;-1.528;2024-01-07T01:05:48;10.93;;;7.82;;
64061;SDS011;50308;47.438;-1.528;2024-01-07T01:08:14;9.63;;;7.30;;
64061;SDS011;50308;47.438;-1.528;2024-01-07T01:10:40;10.18;;;7.13;;
64061;SDS011;50308;47.438;-1.528;2024-01-07T01:13:05;9.85;;;6.57;;
64061;SDS011;50308;47.438;-1.528;2024-01-07T01:15:31;9.73;;;6.93;;
64061;SDS011;50308;47.438;-1.528;2024-01-07T01:17:56;10.00;;;6.72;;
64061;SDS011;50308;47.438;-1.528;2024-01-07T01:20:23;8.93;;;6.15;;
64061;SDS011;50308;47.438;-1.528;2024-01-07T01:22:48;10.88;;;6.70;;
64061;SDS011;50308;47.438;-1.528;2024-01-07T01:25:14;8.15;;;5.95;;
64061;SDS011;50308;47.438;-1.528;2024-01-07T01:27:40;7.90;;;5.80;;
64061;SDS011;50308;47.438;-1.528;2024-01-07T01:30:06;9.27;;;5.90;;
64061;SDS011;50308;47.438;-1.528;2024-01-07T01:32:32;6.97;;;6.18;;
64061;SDS011;50308;47.438;-1.528;2024-01-07T01:34:58;7.53;;;5.32;;
64061;SDS011;50308;47.438;-1.528;2024-01-07T01:37:23;7.80;;;5.47;;
64061;SDS011;50308;47.438;-1.528;2024-01-07T01:39:49;8.20;;;6.00;;
64061;SDS011;50308;47.438;-1.528;2024-01-07T01:42:15;8.13;;;5.75;;
64061;SDS011;50308;47.438;-1.528;2024-01-07T01:44:40;7.60;;;5.53;;
64061;SDS011;50308;47.438;-1.528;2024-01-07T01:47:07;8.13;;;5.53;;
64061;SDS011;50308;47.438;-1.528;2024-01-07T01:49:35;8.32;;;5.13;;
64061;SDS011;50308;47.438;-1.528;2024-01-07T01:52:03;9.45;;;4.93;;
64061;SDS011;50308;47.438;-1.528;2024-01-07T01:54:29;7.13;;;5.65;;
64061;SDS011;50308;47.438;-1.528;2024-01-07T01:56:55;7.60;;;5.75;;
64061;SDS011;50308;47.438;-1.528;2024-01-07T01:59:21;6.43;;;5.05;;
64061;SDS011;50308;47.438;-1.528;2024-01-07T02:01:47;7.05;;;5.10;;
64061;SDS011;50308;47.438;-1.528;2024-01-07T02:04:14;6.88;;;4.95;;
64061;SDS011;50308;47.438;-1.528;2024-01-07T02:06:40;11.60;;;6.25;;
64061;SDS011;50308;47.438;-1.528;2024-01-07T02:09:06;8.25;;;5.68;;
64061;SDS011;50308;47.438;-1.528;2024-01-07T02:11:32;6.68;;;5.28;;
64061;SDS011;50308;47.438;-1.528;2024-01-07T02:13:57;8.15;;;5.28;;
64061;SDS011;50308;47.438;-1.528;2024-01-07T02:16:23;9.05;;;5.47;;
64061;SDS011;50308;47.438;-1.528;2024-01-07T02:18:49;6.90;;;5.50;;
64061;SDS011;50308;47.438;-1.528;2024-01-07T02:21:15;10.10;;;5.32;;
64061;SDS011;50308;47.438;-1.528;2024-01-07T02:23:41;7.22;;;5.57;;
64061;SDS011;50308;47.438;-1.528;2024-01-07T02:26:07;7.25;;;5.80;;
64061;SDS011;50308;47.438;-1.528;2024-01-07T02:28:33;7.28;;;5.70;;
64061;SDS011;50308;47.438;-1.528;2024-01-07T02:30:59;9.13;;;7.20;;
64061;SDS011;50308;47.438;-1.528;2024-01-07T02:33:25;9.55;;;7.07;;
64061;SDS011;50308;47.438;-1.528;2024-01-07T02:35:50;8.30;;;6.50;;
64061;SDS011;50308;47.438;-1.528;2024-01-07T02:38:16;11.02;;;6.75;;
64061;SDS011;50308;47.438;-1.528;2024-01-07T02:40:42;10.30;;;7.85;;
64061;SDS011;50308;47.438;-1.528;2024-01-07T02:43:08;11.57;;;6.60;;
64061;SDS011;50308;47.438;-1.528;2024-01-07T02:45:33;9.40;;;7.90;;
64061;SDS011;50308;47.438;-1.528;2024-01-07T02:47:59;9.43;;;7.78;;
64061;SDS011;50308;47.438;-1.528;2024-01-07T02:50:25;13.40;;;7.90;;
64061;SDS011;50308;47.438;-1.528;2024-01-07T02:52:50;9.85;;;6.95;;
64061;SDS011;50308;47.438;-1.528;2024-01-07T02:55:16;8.90;;;7.07;;
64061;SDS011;50308;47.438;-1.528;2024-01-07T02:57:43;10.07;;;7.82;;
64061;SDS011;50308;47.438;-1.528;2024-01-07T03:00:09;8.90;;;5.95;;
64061;SDS011;50308;47.438;-1.528;2024-01-07T03:02:35;7.50;;;6.20;;
64061;SDS011;50308;47.438;-1.528;2024-01-07T03:05:01;6.43;;;5.47;;
64061;SDS011;50308;47.438;-1.528;2024-01-07T03:07:27;7.15;;;5.20;;
64061;SDS011;50308;47.438;-1.528;2024-01-07T03:09:53;6.45;;;5.07;;
64061;SDS011;50308;47.438;-1.528;2024-01-07T03:12:18;5.80;;;4.47;;
64061;SDS011;50308;47.438;-1.528;2024-01-07T03:14:44;6.50;;;4.50;;
64061;SDS011;50308;47.438;-1.528;2024-01-07T03:17:10;7.25;;;4.45;;
64061;SDS011;50308;47.438;-1.528;2024-01-07T03:19:37;7.32;;;4.55;;
64061;SDS011;50308;47.438;-1.528;2024-01-07T03:22:03;5.40;;;4.07;;
64061;SDS011;50308;47.438;-1.528;2024-01-07T03:24:30;6.28;;;4.05;;
64061;SDS011;50308;47.438;-1.528;2024-01-07T03:26:56;4.65;;;3.80;;
64061;SDS011;50308;47.438;-1.528;2024-01-07T03:29:22;7.18;;;4.68;;
64061;SDS011;50308;47.438;-1.528;2024-01-07T03:31:47;5.78;;;3.83;;
64061;SDS011;50308;47.438;-1.528;2024-01-07T03:34:13;5.85;;;3.75;;
64061;SDS011;50308;47.438;-1.528;2024-01-07T03:36:39;6.30;;;3.65;;
64061;SDS011;50308;47.438;-1.528;2024-01-07T03:39:04;5.47;;;3.88;;
64061;SDS011;50308;47.438;-1.528;2024-01-07T03:41:30;5.65;;;3.90;;
64061;SDS011;50308;47.438;-1.528;2024-01-07T03:43:56;6.18;;;3.83;;
64061;SDS011;50308;47.438;-1.528;2024-01-07T03:46:21;7.20;;;3.70;;
64061;SDS011;50308;47.438;-1.528;2024-01-07T03:48:47;6.03;;;3.55;;
64061;SDS011;50308;47.438;-1.528;2024-01-07T03:51:13;6.70;;;3.55;;
64061;SDS011;50308;47.438;-1.528;2024-01-07T03:53:38;8.57;;;3.95;;
64061;SDS011;50308;47.438;-1.528;2024-01-07T03:56:04;5.53;;;3.70;;
64061;SDS011;50308;47.438;-1.528;2024-01-07T03:58:30;5.55;;;3.55;;
64061;SDS011;50308;47.438;-1.528;2024-01-07T04:00:56;4.82;;;3.58;;
64061;SDS011;50308;47.438;-1.528;2024-01-07T04:03:22;5.75;;;3.40;;
64061;SDS011;50308;47.438;-1.528;2024-01-07T04:05:48;5.50;;;3.25;;
64061;SDS011;50308;47.438;-1.528;2024-01-07T04:08:13;4.50;;;3.60;;
64061;SDS011;50308;47.438;-1.528;2024-01-07T04:10:40;5.22;;;3.30;;
64061;SDS011;50308;47.438;-1.528;2024-01-07T04:13:06;4.93;;;3.30;;
64061;SDS011;50308;47.438;-1.528;2024-01-07T04:15:32;5.13;;;2.90;;
64061;SDS011;50308;47.438;-1.528;2024-01-07T04:18:02;5.85;;;3.45;;
64061;SDS011;50308;47.438;-1.528;2024-01-07T04:20:28;4.97;;;3.33;;
64061;SDS011;50308;47.438;-1.528;2024-01-07T04:22:55;5.38;;;3.35;;
64061;SDS011;50308;47.438;-1.528;2024-01-07T04:25:21;4.65;;;3.30;;
64061;SDS011;50308;47.438;-1.528;2024-01-07T04:27:47;4.00;;;3.25;;
64061;SDS011;50308;47.438;-1.528;2024-01-07T04:30:13;4.78;;;3.22;;
64061;SDS011;50308;47.438;-1.528;2024-01-07T04:32:39;3.50;;;3.00;;
64061;SDS011;50308;47.438;-1.528;2024-01-07T04:35:04;4.45;;;3.15;;
64061;SDS011;50308;47.438;-1.528;2024-01-07T04:37:31;4.93;;;2.85;;
64061;SDS011;50308;47.438;-1.528;2024-01-07T04:39:57;4.10;;;3.28;;
64061;SDS011;50308;47.438;-1.528;2024-01-07T04:42:23;4.85;;;2.80;;
64061;SDS011;50308;47.438;-1.528;2024-01-07T04:44:48;4.00;;;3.05;;
64061;SDS011;50308;47.438;-1.528;2024-01-07T04:47:24;4.72;;;3.10;;
64061;SDS011;50308;47.438;-1.528;2024-01-07T04:49:54;4.45;;;2.83;;
64061;SDS011;50308;47.438;-1.528;2024-01-07T04:52:21;3.47;;;3.15;;
64061;SDS011;50308;47.438;-1.528;2024-01-07T04:54:50;4.65;;;3.30;;
64061;SDS011;50308;47.438;-1.528;2024-01-07T04:57:16;3.58;;;2.42;;
64061;SDS011;50308;47.438;-1.528;2024-01-07T04:59:42;4.40;;;3.33;;
64061;SDS011;50308;47.438;-1.528;2024-01-07T05:02:08;4.55;;;2.90;;
64061;SDS011;50308;47.438;-1.528;2024-01-07T05:04:35;3.90;;;2.95;;
64061;SDS011;50308;47.438;-1.528;2024-01-07T05:07:01;6.10;;;3.47;;
64061;SDS011;50308;47.438;-1.528;2024-01-07T05:09:27;6.43;;;3.70;;
64061;SDS011;50308;47.438;-1.528;2024-01-07T05:11:53;9.73;;;4.85;;
64061;SDS011;50308;47.438;-1.528;2024-01-07T05:14:18;6.97;;;4.32;;
64061;SDS011;50308;47.438;-1.528;2024-01-07T05:16:44;6.20;;;3.70;;
64061;SDS011;50308;47.438;-1.528;2024-01-07T05:19:10;4.97;;;3.38;;
64061;SDS011;50308;47.438;-1.528;2024-01-07T05:21:35;6.28;;;4.13;;
64061;SDS011;50308;47.438;-1.528;2024-01-07T05:24:02;5.05;;;3.40;;
64061;SDS011;50308;47.438;-1.528;2024-01-07T05:26:27;4.82;;;3.30;;
64061;SDS011;50308;47.438;-1.528;2024-01-07T05:28:53;6.05;;;3.50;;
64061;SDS011;50308;47.438;-1.528;2024-01-07T05:31:19;3.38;;;2.88;;
64061;SDS011;50308;47.438;-1.528;2024-01-07T05:33:45;5.97;;;3.20;;
64061;SDS011;50308;47.438;-1.528;2024-01-07T05:36:11;5.63;;;2.90;;
64061;SDS011;50308;47.438;-1.528;2024-01-07T05:38:37;6.90;;;3.38;;
64061;SDS011;50308;47.438;-1.528;2024-01-07T05:41:03;3.92;;;3.03;;
64061;SDS011;50308;47.438;-1.528;2024-01-07T05:43:29;3.78;;;2.92;;
64061;SDS011;50308;47.438;-1.528;2024-01-07T05:45:55;3.55;;;3.00;;
64061;SDS011;50308;47.438;-1.528;2024-01-07T05:48:21;4.50;;;2.90;;
64061;SDS011;50308;47.438;-1.528;2024-01-07T05:50:47;7.20;;;2.70;;
64061;SDS011;50308;47.438;-1.528;2024-01-07T05:53:13;5.30;;;2.90;;
64061;SDS011;50308;47.438;-1.528;2024-01-07T05:55:39;3.60;;;2.83;;
64061;SDS011;50308;47.438;-1.528;2024-01-07T05:58:05;4.40;;;2.58;;
64061;SDS011;50308;47.438;-1.528;2024-01-07T06:00:30;5.05;;;2.88;;
64061;SDS011;50308;47.438;-1.528;2024-01-07T06:02:56;4.95;;;2.92;;
64061;SDS011;50308;47.438;-1.528;2024-01-07T06:05:22;3.63;;;2.58;;
64061;SDS011;50308;47.438;-1.528;2024-01-07T06:07:48;3.03;;;2.53;;
64061;SDS011;50308;47.438;-1.528;2024-01-07T06:10:14;3.47;;;2.55;;
64061;SDS011;50308;47.438;-1.528;2024-01-07T06:12:40;4.78;;;2.70;;
64061;SDS011;50308;47.438;-1.528;2024-01-07T06:15:06;4.90;;;2.90;;
64061;SDS011;50308;47.438;-1.528;2024-01-07T06:17:32;3.55;;;2.88;;
64061;SDS011;50308;47.438;-1.528;2024-01-07T06:19:58;5.35;;;2.83;;
64061;SDS011;50308;47.438;-1.528;2024-01-07T06:22:24;3.28;;;2.60;;
64061;SDS011;50308;47.438;-1.528;2024-01-07T06:24:49;4.65;;;2.95;;
64061;SDS011;50308;47.438;-1.528;2024-01-07T06:27:15;4.55;;;3.08;;
64061;SDS011;50308;47.438;-1.528;2024-01-07T06:29:41;4.63;;;2.92;;
64061;SDS011;50308;47.438;-1.528;2024-01-07T06:32:07;3.22;;;2.45;;
64061;SDS011;50308;47.438;-1.528;2024-01-07T06:34:34;4.70;;;3.10;;
64061;SDS011;50308;47.438;-1.528;2024-01-07T06:37:00;4.38;;;3.20;;
64061;SDS011;50308;47.438;-1.528;2024-01-07T06:39:26;7.25;;;5.90;;
64061;SDS011;50308;47.438;-1.528;2024-01-07T06:41:52;9.30;;;7.85;;
64061;SDS011;50308;47.438;-1.528;2024-01-07T06:44:18;10.65;;;8.02;;
64061;SDS011;50308;47.438;-1.528;2024-01-07T06:46:43;9.23;;;7.10;;
64061;SDS011;50308;47.438;-1.528;2024-01-07T06:49:09;9.73;;;7.43;;
64061;SDS011;50308;47.438;-1.528;2024-01-07T06:51:35;7.80;;;5.90;;
64061;SDS011;50308;47.438;-1.528;2024-01-07T06:54:02;9.35;;;6.05;;
64061;SDS011;50308;47.438;-1.528;2024-01-07T06:56:28;8.15;;;5.78;;
64061;SDS011;50308;47.438;-1.528;2024-01-07T06:58:53;7.68;;;5.55;;
64061;SDS011;50308;47.438;-1.528;2024-01-07T07:01:19;8.82;;;6.20;;
64061;SDS011;50308;47.438;-1.528;2024-01-07T07:03:46;8.48;;;5.80;;
64061;SDS011;50308;47.438;-1.528;2024-01-07T07:06:12;6.68;;;5.22;;
64061;SDS011;50308;47.438;-1.528;2024-01-07T07:08:38;7.68;;;4.78;;
64061;SDS011;50308;47.438;-1.528;2024-01-07T07:11:04;5.65;;;4.53;;
64061;SDS011;50308;47.438;-1.528;2024-01-07T07:13:29;7.20;;;4.28;;
64061;SDS011;50308;47.438;-1.528;2024-01-07T07:15:55;4.90;;;4.20;;
64061;SDS011;50308;47.438;-1.528;2024-01-07T07:18:21;5.20;;;4.00;;
64061;SDS011;50308;47.438;-1.528;2024-01-07T07:20:47;5.32;;;4.10;;
64061;SDS011;50308;47.438;-1.528;2024-01-07T07:23:12;6.00;;;3.78;;
64061;SDS011;50308;47.438;-1.528;2024-01-07T07:25:38;4.25;;;3.70;;
64061;SDS011;50308;47.438;-1.528;2024-01-07T07:28:04;5.93;;;3.88;;
64061;SDS011;50308;47.438;-1.528;2024-01-07T07:30:30;4.40;;;3.70;;
64061;SDS011;50308;47.438;-1.528;2024-01-07T07:32:56;3.97;;;3.42;;
64061;SDS011;50308;47.438;-1.528;2024-01-07T07:35:21;5.13;;;3.40;;
64061;SDS011;50308;47.438;-1.528;2024-01-07T07:37:47;5.40;;;4.00;;
64061;SDS011;50308;47.438;-1.528;2024-01-07T07:40:13;4.57;;;3.50;;
64061;SDS011;50308;47.438;-1.528;2024-01-07T07:42:39;4.15;;;3.13;;
64061;SDS011;50308;47.438;-1.528;2024-01-07T07:45:05;4.70;;;3.92;;
64061;SDS011;50308;47.438;-1.528;2024-01-07T07:47:31;4.90;;;3.70;;
64061;SDS011;50308;47.438;-1.528;2024-01-07T07:49:57;6.53;;;4.30;;
64061;SDS011;50308;47.438;-1.528;2024-01-07T07:52:22;7.30;;;3.60;;
64061;SDS011;50308;47.438;-1.528;2024-01-07T07:54:53;6.82;;;4.03;;
64061;SDS011;50308;47.438;-1.528;2024-01-07T07:57:19;6.72;;;3.92;;
64061;SDS011;50308;47.438;-1.528;2024-01-07T07:59:46;4.60;;;3.47;;
64061;SDS011;50308;47.438;-1.528;2024-01-07T08:02:15;5.80;;;3.60;;
64061;SDS011;50308;47.438;-1.528;2024-01-07T08:04:40;6.40;;;4.15;;
64061;SDS011;50308;47.438;-1.528;2024-01-07T08:07:07;5.88;;;3.78;;
64061;SDS011;50308;47.438;-1.528;2024-01-07T08:09:33;5.38;;;3.70;;
64061;SDS011;50308;47.438;-1.528;2024-01-07T08:12:02;4.90;;;3.72;;
64061;SDS011;50308;47.438;-1.528;2024-01-07T08:14:28;7.70;;;3.60;;
64061;SDS011;50308;47.438;-1.528;2024-01-07T08:16:54;6.50;;;4.10;;
64061;SDS011;50308;47.438;-1.528;2024-01-07T08:19:19;6.55;;;3.63;;
64061;SDS011;50308;47.438;-1.528;2024-01-07T08:21:45;6.43;;;3.58;;
64061;SDS011;50308;47.438;-1.528;2024-01-07T08:24:11;5.10;;;3.80;;
64061;SDS011;50308;47.438;-1.528;2024-01-07T08:26:37;6.32;;;3.85;;
64061;SDS011;50308;47.438;-1.528;2024-01-07T08:29:03;4.78;;;3.40;;
64061;SDS011;50308;47.438;-1.528;2024-01-07T08:31:29;5.72;;;3.55;;
64061;SDS011;50308;47.438;-1.528;2024-01-07T08:33:55;6.80;;;3.97;;
64061;SDS011;50308;47.438;-1.528;2024-01-07T08:36:20;7.03;;;3.88;;
64061;SDS011;50308;47.438;-1.528;2024-01-07T08:38:46;6.00;;;4.38;;
64061;SDS011;50308;47.438;-1.528;2024-01-07T08:41:14;6.07;;;4.35;;
64061;SDS011;50308;47.438;-1.528;2024-01-07T08:43:41;6.32;;;4.10;;
64061;SDS011;50308;47.438;-1.528;2024-01-07T08:46:06;7.18;;;4.30;;
64061;SDS011;50308;47.438;-1.528;2024-01-07T08:48:32;8.23;;;3.58;;
64061;SDS011;50308;47.438;-1.528;2024-01-07T08:50:58;7.70;;;4.07;;
64061;SDS011;50308;47.438;-1.528;2024-01-07T08:53:24;8.88;;;4.30;;
64061;SDS011;50308;47.438;-1.528;2024-01-07T08:55:49;5.60;;;3.80;;
64061;SDS011;50308;47.438;-1.528;2024-01-07T08:58:15;5.20;;;3.67;;
64061;SDS011;50308;47.438;-1.528;2024-01-07T09:00:42;6.20;;;4.00;;
64061;SDS011;50308;47.438;-1.528;2024-01-07T09:03:08;5.43;;;4.03;;
64061;SDS011;50308;47.438;-1.528;2024-01-07T09:05:34;4.47;;;3.65;;
64061;SDS011;50308;47.438;-1.528;2024-01-07T09:08:00;6.80;;;3.72;;
64061;SDS011;50308;47.438;-1.528;2024-01-07T09:10:26;5.47;;;3.67;;
64061;SDS011;50308;47.438;-1.528;2024-01-07T09:12:52;6.85;;;3.90;;
64061;SDS011;50308;47.438;-1.528;2024-01-07T09:15:18;6.53;;;4.25;;
64061;SDS011;50308;47.438;-1.528;2024-01-07T09:17:45;5.55;;;3.70;;
64061;SDS011;50308;47.438;-1.528;2024-01-07T09:20:11;6.22;;;4.30;;
64061;SDS011;50308;47.438;-1.528;2024-01-07T09:22:37;6.28;;;4.28;;
64061;SDS011;50308;47.438;-1.528;2024-01-07T09:25:04;8.18;;;5.22;;
64061;SDS011;50308;47.438;-1.528;2024-01-07T09:27:31;8.60;;;5.18;;
64061;SDS011;50308;47.438;-1.528;2024-01-07T09:29:57;5.55;;;4.72;;
64061;SDS011;50308;47.438;-1.528;2024-01-07T09:32:23;7.38;;;4.60;;
64061;SDS011;50308;47.438;-1.528;2024-01-07T09:34:49;7.00;;;4.78;;
64061;SDS011;50308;47.438;-1.528;2024-01-07T09:37:14;9.20;;;6.15;;
64061;SDS011;50308;47.438;-1.528;2024-01-07T09:39:41;8.38;;;6.07;;
64061;SDS011;50308;47.438;-1.528;2024-01-07T09:42:12;8.82;;;5.15;;
64061;SDS011;50308;47.438;-1.528;2024-01-07T09:44:41;5.97;;;4.80;;
64061;SDS011;50308;47.438;-1.528;2024-01-07T09:47:11;6.35;;;4.45;;
64061;SDS011;50308;47.438;-1.528;2024-01-07T09:49:40;10.00;;;4.63;;
64061;SDS011;50308;47.438;-1.528;2024-01-07T09:52:07;9.02;;;4.30;;
64061;SDS011;50308;47.438;-1.528;2024-01-07T09:54:33;7.43;;;3.85;;
64061;SDS011;50308;47.438;-1.528;2024-01-07T09:57:03;12.43;;;4.50;;
64061;SDS011;50308;47.438;-1.528;2024-01-07T09:59:31;7.70;;;4.43;;
64061;SDS011;50308;47.438;-1.528;2024-01-07T10:01:57;6.82;;;4.28;;
64061;SDS011;50308;47.438;-1.528;2024-01-07T10:04:23;6.15;;;4.20;;
64061;SDS011;50308;47.438;-1.528;2024-01-07T10:06:50;5.65;;;4.22;;
64061;SDS011;50308;47.438;-1.528;2024-01-07T10:09:17;6.50;;;3.85;;
64061;SDS011;50308;47.438;-1.528;2024-01-07T10:11:46;6.63;;;4.47;;
64061;SDS011;50308;47.438;-1.528;2024-01-07T10:14:12;7.00;;;4.22;;
64061;SDS011;50308;47.438;-1.528;2024-01-07T10:16:38;5.20;;;3.53;;
64061;SDS011;50308;47.438;-1.528;2024-01-07T10:19:04;6.10;;;4.32;;
64061;SDS011;50308;47.438;-1.528;2024-01-07T10:21:30;6.18;;;3.88;;
64061;SDS011;50308;47.438;-1.528;2024-01-07T10:24:11;5.88;;;3.78;;
64061;SDS011;50308;47.438;-1.528;2024-01-07T10:26:38;7.60;;;4.00;;
64061;SDS011;50308;47.438;-1.528;2024-01-07T10:29:05;6.28;;;3.92;;
64061;SDS011;50308;47.438;-1.528;2024-01-07T10:31:32;4.43;;;3.60;;
64061;SDS011;50308;47.438;-1.528;2024-01-07T10:33:57;5.15;;;3.75;;
64061;SDS011;50308;47.438;-1.528;2024-01-07T10:36:26;5.93;;;3.80;;
64061;SDS011;50308;47.438;-1.528;2024-01-07T10:38:52;5.45;;;3.67;;
64061;SDS011;50308;47.438;-1.528;2024-01-07T10:41:20;6.97;;;3.45;;
64061;SDS011;50308;47.438;-1.528;2024-01-07T10:43:47;6.13;;;3.83;;
64061;SDS011;50308;47.438;-1.528;2024-01-07T10:46:14;6.22;;;3.83;;
64061;SDS011;50308;47.438;-1.528;2024-01-07T10:48:59;6.60;;;4.00;;
64061;SDS011;50308;47.438;-1.528;2024-01-07T10:51:27;5.07;;;4.38;;
64061;SDS011;50308;47.438;-1.528;2024-01-07T10:53:53;13.20;;;4.22;;
64061;SDS011;50308;47.438;-1.528;2024-01-07T10:56:25;5.00;;;3.50;;
64061;SDS011;50308;47.438;-1.528;2024-01-07T10:58:57;7.47;;;3.83;;
64061;SDS011;50308;47.438;-1.528;2024-01-07T11:01:24;8.48;;;3.88;;
64061;SDS011;50308;47.438;-1.528;2024-01-07T11:06:33;7.15;;;4.50;;
64061;SDS011;50308;47.438;-1.528;2024-01-07T11:09:07;20.02;;;11.98;;
64061;SDS011;50308;47.438;-1.528;2024-01-07T11:11:42;7.10;;;5.00;;
64061;SDS011;50308;47.438;-1.528;2024-01-07T11:16:58;7.45;;;4.70;;
64061;SDS011;50308;47.438;-1.528;2024-01-07T11:19:25;8.07;;;5.13;;
64061;SDS011;50308;47.438;-1.528;2024-01-07T11:21:51;7.38;;;4.20;;
64061;SDS011;50308;47.438;-1.528;2024-01-07T11:24:38;7.63;;;4.82;;
64061;SDS011;50308;47.438;-1.528;2024-01-07T11:27:03;6.88;;;4.07;;
64061;SDS011;50308;47.438;-1.528;2024-01-07T11:29:31;6.15;;;3.80;;
64061;SDS011;50308;47.438;-1.528;2024-01-07T11:31:56;5.85;;;3.70;;
64061;SDS011;50308;47.438;-1.528;2024-01-07T11:34:38;7.55;;;3.92;;
64061;SDS011;50308;47.438;-1.528;2024-01-07T11:37:06;19.33;;;10.32;;
64061;SDS011;50308;47.438;-1.528;2024-01-07T11:39:35;7.32;;;4.28;;
64061;SDS011;50308;47.438;-1.528;2024-01-07T11:42:02;9.27;;;5.00;;
64061;SDS011;50308;47.438;-1.528;2024-01-07T11:44:29;8.73;;;4.13;;
64061;SDS011;50308;47.438;-1.528;2024-01-07T11:46:55;7.82;;;3.75;;
64061;SDS011;50308;47.438;-1.528;2024-01-07T11:49:21;7.25;;;3.90;;
64061;SDS011;50308;47.438;-1.528;2024-01-07T11:51:47;6.00;;;3.53;;
64061;SDS011;50308;47.438;-1.528;2024-01-07T11:54:13;7.72;;;3.35;;
64061;SDS011;50308;47.438;-1.528;2024-01-07T11:56:39;5.30;;;3.00;;
64061;SDS011;50308;47.438;-1.528;2024-01-07T11:59:05;6.28;;;4.10;;
64061;SDS011;50308;47.438;-1.528;2024-01-07T12:01:31;5.82;;;3.72;;
64061;SDS011;50308;47.438;-1.528;2024-01-07T12:03:57;6.43;;;3.22;;
64061;SDS011;50308;47.438;-1.528;2024-01-07T12:06:23;5.25;;;3.20;;
64061;SDS011;50308;47.438;-1.528;2024-01-07T12:08:49;6.45;;;3.50;;
64061;SDS011;50308;47.438;-1.528;2024-01-07T12:11:16;6.63;;;3.28;;
64061;SDS011;50308;47.438;-1.528;2024-01-07T12:13:43;5.43;;;3.08;;
64061;SDS011;50308;47.438;-1.528;2024-01-07T12:16:09;6.20;;;3.00;;
64061;SDS011;50308;47.438;-1.528;2024-01-07T12:18:36;5.68;;;2.60;;
64061;SDS011;50308;47.438;-1.528;2024-01-07T12:21:03;5.45;;;2.80;;
64061;SDS011;50308;47.438;-1.528;2024-01-07T12:23:33;7.13;;;3.47;;
64061;SDS011;50308;47.438;-1.528;2024-01-07T12:26:07;5.60;;;3.03;;
64061;SDS011;50308;47.438;-1.528;2024-01-07T12:28:34;4.10;;;2.15;;
64061;SDS011;50308;47.438;-1.528;2024-01-07T12:30:59;6.05;;;2.50;;
64061;SDS011;50308;47.438;-1.528;2024-01-07T12:33:26;4.82;;;2.50;;
64061;SDS011;50308;47.438;-1.528;2024-01-07T12:35:54;4.30;;;2.08;;
64061;SDS011;50308;47.438;-1.528;2024-01-07T12:38:23;4.13;;;1.65;;
64061;SDS011;50308;47.438;-1.528;2024-01-07T12:40:50;3.15;;;1.90;;
64061;SDS011;50308;47.438;-1.528;2024-01-07T12:43:16;4.70;;;2.10;;
64061;SDS011;50308;47.438;-1.528;2024-01-07T12:45:42;3.40;;;1.60;;
64061;SDS011;50308;47.438;-1.528;2024-01-07T12:48:07;3.35;;;1.70;;
64061;SDS011;50308;47.438;-1.528;2024-01-07T12:50:33;2.92;;;1.50;;
64061;SDS011;50308;47.438;-1.528;2024-01-07T12:52:58;5.45;;;2.15;;
64061;SDS011;50308;47.438;-1.528;2024-01-07T12:55:24;5.65;;;1.77;;
64061;SDS011;50308;47.438;-1.528;2024-01-07T12:57:50;4.00;;;1.70;;
64061;SDS011;50308;47.438;-1.528;2024-01-07T13:00:17;3.85;;;1.75;;
64061;SDS011;50308;47.438;-1.528;2024-01-07T13:02:43;4.45;;;1.58;;
64061;SDS011;50308;47.438;-1.528;2024-01-07T13:05:08;2.92;;;1.67;;
64061;SDS011;50308;47.438;-1.528;2024-01-07T13:07:34;3.20;;;1.60;;
64061;SDS011;50308;47.438;-1.528;2024-01-07T13:10:00;2.67;;;1.38;;
64061;SDS011;50308;47.438;-1.528;2024-01-07T13:12:26;3.40;;;1.50;;
64061;SDS011;50308;47.438;-1.528;2024-01-07T13:14:52;2.92;;;1.45;;
64061;SDS011;50308;47.438;-1.528;2024-01-07T13:17:18;4.30;;;2.15;;
64061;SDS011;50308;47.438;-1.528;2024-01-07T13:19:44;2.67;;;1.50;;
64061;SDS011;50308;47.438;-1.528;2024-01-07T13:22:09;5.45;;;1.83;;
64061;SDS011;50308;47.438;-1.528;2024-01-07T13:24:36;3.00;;;1.70;;
64061;SDS011;50308;47.438;-1.528;2024-01-07T13:27:02;3.35;;;1.70;;
64061;SDS011;50308;47.438;-1.528;2024-01-07T13:29:28;3.05;;;1.40;;
64061;SDS011;50308;47.438;-1.528;2024-01-07T13:31:54;5.60;;;2.25;;
64061;SDS011;50308;47.438;-1.528;2024-01-07T13:34:20;3.10;;;1.60;;
64061;SDS011;50308;47.438;-1.528;2024-01-07T13:36:46;4.18;;;1.88;;
64061;SDS011;50308;47.438;-1.528;2024-01-07T13:39:11;3.55;;;1.50;;
64061;SDS011;50308;47.438;-1.528;2024-01-07T13:41:37;2.58;;;1.42;;
64061;SDS011;50308;47.438;-1.528;2024-01-07T13:44:04;6.57;;;2.00;;
64061;SDS011;50308;47.438;-1.528;2024-01-07T13:46:29;4.00;;;1.67;;
64061;SDS011;50308;47.438;-1.528;2024-01-07T13:48:55;2.47;;;1.40;;
64061;SDS011;50308;47.438;-1.528;2024-01-07T13:51:21;3.13;;;1.60;;
64061;SDS011;50308;47.438;-1.528;2024-01-07T13:53:46;2.50;;;1.58;;
64061;SDS011;50308;47.438;-1.528;2024-01-07T13:56:12;1.80;;;1.27;;
64061;SDS011;50308;47.438;-1.528;2024-01-07T13:58:38;5.40;;;1.42;;
64061;SDS011;50308;47.438;-1.528;2024-01-07T14:01:04;3.08;;;1.40;;
64061;SDS011;50308;47.438;-1.528;2024-01-07T14:03:33;3.17;;;1.25;;
64061;SDS011;50308;47.438;-1.528;2024-01-07T14:05:59;2.47;;;1.48;;
64061;SDS011;50308;47.438;-1.528;2024-01-07T14:08:25;4.50;;;1.60;;
64061;SDS011;50308;47.438;-1.528;2024-01-07T14:10:51;5.13;;;1.58;;
64061;SDS011;50308;47.438;-1.528;2024-01-07T14:13:17;2.30;;;1.23;;
64061;SDS011;50308;47.438;-1.528;2024-01-07T14:15:44;4.25;;;1.50;;
64061;SDS011;50308;47.438;-1.528;2024-01-07T14:18:09;2.40;;;1.38;;
64061;SDS011;50308;47.438;-1.528;2024-01-07T14:20:40;3.40;;;1.58;;
64061;SDS011;50308;47.438;-1.528;2024-01-07T14:23:05;3.35;;;1.23;;
64061;SDS011;50308;47.438;-1.528;2024-01-07T14:25:31;3.90;;;1.60;;
64061;SDS011;50308;47.438;-1.528;2024-01-07T14:27:57;4.57;;;2.00;;
64061;SDS011;50308;47.438;-1.528;2024-01-07T14:30:22;5.07;;;1.50;;